sensor_id;sensor_type;location;lat;lon;timestamp;P1;durP1;ratioP1;P2;durP2;ratioP2
5507;SDS011;2776;51.046;6.772;2023-11-21T00:00:45;8.23;;;4.97;;
5507;SDS011;2776;51.046;6.772;2023-11-21T00:03:12;7.10;;;5.17;;
5507;SDS011;2776;51.046;6.772;2023-11-21T00:05:40;7.77;;;5.30;;
5507;SDS011;2776;51.046;6.772;2023-11-21T00:08:07;8.23;;;5.30;;
5507;SDS011;2776;51.046;6.772;2023-11-21T00:10:34;8.13;;;5.03;;
5507;SDS011;2776;51.046;6.772;2023-11-21T00:13:03;6.57;;;5.20;;
5507;SDS011;2776;51.046;6.772;2023-11-21T00:15:30;15.47;;;4.97;;
5507;SDS011;2776;51.046;6.772;2023-11-21T00:17:58;7.73;;;5.63;;
5507;SDS011;2776;51.046;6.772;2023-11-21T00:20:26;11.17;;;5.37;;
5507;SDS011;2776;51.046;6.772;2023-11-21T00:22:52;9.23;;;5.10;;
5507;SDS011;2776;51.046;6.772;2023-11-21T00:25:19;9.87;;;5.90;;
5507;SDS011;2776;51.046;6.772;2023-11-21T00:27:46;7.87;;;5.33;;
5507;SDS011;2776;51.046;6.772;2023-11-21T00:30:13;8.73;;;4.83;;
5507;SDS011;2776;51.046;6.772;2023-11-21T00:32:40;10.90;;;5.90;;
5507;SDS011;2776;51.046;6.772;2023-11-21T00:35:09;10.20;;;5.50;;
5507;SDS011;2776;51.046;6.772;2023-11-21T00:37:36;13.93;;;8.23;;
5507;SDS011;2776;51.046;6.772;2023-11-21T00:40:04;9.60;;;6.27;;
5507;SDS011;2776;51.046;6.772;2023-11-21T00:42:31;10.50;;;6.13;;
5507;SDS011;2776;51.046;6.772;2023-11-21T00:44:59;8.93;;;4.97;;
5507;SDS011;2776;51.046;6.772;2023-11-21T00:47:26;11.77;;;5.30;;
5507;SDS011;2776;51.046;6.772;2023-11-21T00:49:52;10.73;;;5.77;;
5507;SDS011;2776;51.046;6.772;2023-11-21T00:52:20;8.23;;;5.30;;
5507;SDS011;2776;51.046;6.772;2023-11-21T00:54:47;9.13;;;4.90;;
5507;SDS011;2776;51.046;6.772;2023-11-21T00:57:14;10.13;;;5.47;;
5507;SDS011;2776;51.046;6.772;2023-11-21T00:59:41;9.63;;;5.37;;
5507;SDS011;2776;51.046;6.772;2023-11-21T01:02:08;9.23;;;5.87;;
5507;SDS011;2776;51.046;6.772;2023-11-21T01:04:35;9.63;;;4.80;;
5507;SDS011;2776;51.046;6.772;2023-11-21T01:07:02;9.03;;;5.23;;
5507;SDS011;2776;51.046;6.772;2023-11-21T01:09:31;7.03;;;4.67;;
5507;SDS011;2776;51.046;6.772;2023-11-21T01:11:58;8.10;;;4.53;;
5507;SDS011;2776;51.046;6.772;2023-11-21T01:14:26;8.17;;;4.67;;
5507;SDS011;2776;51.046;6.772;2023-11-21T01:16:53;13.17;;;5.17;;
5507;SDS011;2776;51.046;6.772;2023-11-21T01:19:19;8.23;;;4.97;;
5507;SDS011;2776;51.046;6.772;2023-11-21T01:21:46;5.97;;;5.07;;
5507;SDS011;2776;51.046;6.772;2023-11-21T01:24:13;6.70;;;4.63;;
5507;SDS011;2776;51.046;6.772;2023-11-21T01:26:41;9.93;;;5.23;;
5507;SDS011;2776;51.046;6.772;2023-11-21T01:29:08;9.63;;;5.30;;
5507;SDS011;2776;51.046;6.772;2023-11-21T01:31:35;7.97;;;4.97;;
5507;SDS011;2776;51.046;6.772;2023-11-21T01:34:01;5.53;;;4.13;;
5507;SDS011;2776;51.046;6.772;2023-11-21T01:36:30;12.43;;;4.57;;
5507;SDS011;2776;51.046;6.772;2023-11-21T01:38:58;8.60;;;4.00;;
5507;SDS011;2776;51.046;6.772;2023-11-21T01:41:25;6.00;;;4.33;;
5507;SDS011;2776;51.046;6.772;2023-11-21T01:43:54;5.63;;;3.93;;
5507;SDS011;2776;51.046;6.772;2023-11-21T01:46:22;6.93;;;4.53;;
5507;SDS011;2776;51.046;6.772;2023-11-21T01:48:49;6.73;;;4.23;;
5507;SDS011;2776;51.046;6.772;2023-11-21T01:51:16;10.27;;;5.47;;
5507;SDS011;2776;51.046;6.772;2023-11-21T01:53:43;6.37;;;4.57;;
5507;SDS011;2776;51.046;6.772;2023-11-21T01:56:11;8.17;;;4.83;;
5507;SDS011;2776;51.046;6.772;2023-11-21T01:58:39;7.63;;;4.53;;
5507;SDS011;2776;51.046;6.772;2023-11-21T02:01:07;5.80;;;4.53;;
5507;SDS011;2776;51.046;6.772;2023-11-21T02:03:35;6.23;;;4.33;;
5507;SDS011;2776;51.046;6.772;2023-11-21T02:06:01;7.40;;;4.03;;
5507;SDS011;2776;51.046;6.772;2023-11-21T02:08:28;6.07;;;4.17;;
5507;SDS011;2776;51.046;6.772;2023-11-21T02:10:55;5.90;;;4.07;;
5507;SDS011;2776;51.046;6.772;2023-11-21T02:13:22;7.93;;;5.17;;
5507;SDS011;2776;51.046;6.772;2023-11-21T02:15:49;7.17;;;4.73;;
5507;SDS011;2776;51.046;6.772;2023-11-21T02:18:18;11.10;;;6.40;;
5507;SDS011;2776;51.046;6.772;2023-11-21T02:20:47;6.73;;;5.20;;
5507;SDS011;2776;51.046;6.772;2023-11-21T02:23:15;7.97;;;5.23;;
5507;SDS011;2776;51.046;6.772;2023-11-21T02:25:43;6.93;;;5.30;;
5507;SDS011;2776;51.046;6.772;2023-11-21T02:28:08;9.30;;;5.60;;
5507;SDS011;2776;51.046;6.772;2023-11-21T02:30:37;7.83;;;5.77;;
5507;SDS011;2776;51.046;6.772;2023-11-21T02:33:04;8.87;;;5.70;;
5507;SDS011;2776;51.046;6.772;2023-11-21T02:35:32;10.40;;;6.77;;
5507;SDS011;2776;51.046;6.772;2023-11-21T02:38:00;12.13;;;7.50;;
5507;SDS011;2776;51.046;6.772;2023-11-21T02:40:28;10.30;;;6.73;;
5507;SDS011;2776;51.046;6.772;2023-11-21T02:42:55;11.80;;;6.90;;
5507;SDS011;2776;51.046;6.772;2023-11-21T02:45:24;9.77;;;7.03;;
5507;SDS011;2776;51.046;6.772;2023-11-21T02:47:51;12.53;;;7.70;;
5507;SDS011;2776;51.046;6.772;2023-11-21T02:50:21;10.03;;;6.53;;
5507;SDS011;2776;51.046;6.772;2023-11-21T02:52:48;10.27;;;7.43;;
5507;SDS011;2776;51.046;6.772;2023-11-21T02:55:15;12.23;;;8.23;;
5507;SDS011;2776;51.046;6.772;2023-11-21T02:57:43;16.73;;;8.87;;
5507;SDS011;2776;51.046;6.772;2023-11-21T03:00:10;14.10;;;8.33;;
5507;SDS011;2776;51.046;6.772;2023-11-21T03:02:38;14.90;;;8.70;;
5507;SDS011;2776;51.046;6.772;2023-11-21T03:05:05;15.30;;;8.93;;
5507;SDS011;2776;51.046;6.772;2023-11-21T03:07:33;13.67;;;8.40;;
5507;SDS011;2776;51.046;6.772;2023-11-21T03:10:00;14.10;;;8.83;;
5507;SDS011;2776;51.046;6.772;2023-11-21T03:12:27;15.10;;;8.87;;
5507;SDS011;2776;51.046;6.772;2023-11-21T03:14:55;18.03;;;9.27;;
5507;SDS011;2776;51.046;6.772;2023-11-21T03:17:22;15.37;;;9.03;;
5507;SDS011;2776;51.046;6.772;2023-11-21T03:19:49;15.77;;;9.50;;
5507;SDS011;2776;51.046;6.772;2023-11-21T03:22:17;16.03;;;10.53;;
5507;SDS011;2776;51.046;6.772;2023-11-21T03:24:44;13.60;;;9.03;;
5507;SDS011;2776;51.046;6.772;2023-11-21T03:27:11;18.57;;;10.27;;
5507;SDS011;2776;51.046;6.772;2023-11-21T03:29:38;18.87;;;8.83;;
5507;SDS011;2776;51.046;6.772;2023-11-21T03:32:06;17.23;;;9.87;;
5507;SDS011;2776;51.046;6.772;2023-11-21T03:34:33;15.87;;;8.97;;
5507;SDS011;2776;51.046;6.772;2023-11-21T03:37:00;19.00;;;10.53;;
5507;SDS011;2776;51.046;6.772;2023-11-21T03:39:27;17.83;;;9.87;;
5507;SDS011;2776;51.046;6.772;2023-11-21T03:41:54;18.47;;;9.70;;
5507;SDS011;2776;51.046;6.772;2023-11-21T03:44:21;17.60;;;9.97;;
5507;SDS011;2776;51.046;6.772;2023-11-21T03:46:47;20.77;;;10.10;;
5507;SDS011;2776;51.046;6.772;2023-11-21T03:49:15;12.57;;;8.97;;
5507;SDS011;2776;51.046;6.772;2023-11-21T03:51:42;15.97;;;9.77;;
5507;SDS011;2776;51.046;6.772;2023-11-21T03:54:09;16.03;;;9.93;;
5507;SDS011;2776;51.046;6.772;2023-11-21T03:56:36;14.90;;;9.40;;
5507;SDS011;2776;51.046;6.772;2023-11-21T03:59:02;15.17;;;9.80;;
5507;SDS011;2776;51.046;6.772;2023-11-21T04:01:29;17.13;;;9.83;;
5507;SDS011;2776;51.046;6.772;2023-11-21T04:03:56;14.83;;;9.83;;
5507;SDS011;2776;51.046;6.772;2023-11-21T04:06:24;20.03;;;9.67;;
5507;SDS011;2776;51.046;6.772;2023-11-21T04:08:51;20.93;;;10.30;;
5507;SDS011;2776;51.046;6.772;2023-11-21T04:11:18;17.20;;;9.70;;
5507;SDS011;2776;51.046;6.772;2023-11-21T04:13:45;21.77;;;11.07;;
5507;SDS011;2776;51.046;6.772;2023-11-21T04:16:12;19.23;;;10.33;;
5507;SDS011;2776;51.046;6.772;2023-11-21T04:18:38;16.63;;;10.27;;
5507;SDS011;2776;51.046;6.772;2023-11-21T04:21:05;22.90;;;10.10;;
5507;SDS011;2776;51.046;6.772;2023-11-21T04:23:34;17.80;;;11.23;;
5507;SDS011;2776;51.046;6.772;2023-11-21T04:26:01;20.07;;;11.00;;
5507;SDS011;2776;51.046;6.772;2023-11-21T04:28:28;19.80;;;10.80;;
5507;SDS011;2776;51.046;6.772;2023-11-21T04:30:55;18.93;;;9.70;;
5507;SDS011;2776;51.046;6.772;2023-11-21T04:33:22;18.37;;;10.50;;
5507;SDS011;2776;51.046;6.772;2023-11-21T04:35:50;14.00;;;9.53;;
5507;SDS011;2776;51.046;6.772;2023-11-21T04:38:17;19.10;;;10.60;;
5507;SDS011;2776;51.046;6.772;2023-11-21T04:40:45;17.80;;;9.43;;
5507;SDS011;2776;51.046;6.772;2023-11-21T04:43:12;14.07;;;9.13;;
5507;SDS011;2776;51.046;6.772;2023-11-21T04:45:39;14.73;;;9.47;;
5507;SDS011;2776;51.046;6.772;2023-11-21T04:48:06;18.40;;;9.63;;
5507;SDS011;2776;51.046;6.772;2023-11-21T04:50:33;17.60;;;9.20;;
5507;SDS011;2776;51.046;6.772;2023-11-21T04:53:00;13.57;;;8.40;;
5507;SDS011;2776;51.046;6.772;2023-11-21T04:55:26;14.90;;;8.33;;
5507;SDS011;2776;51.046;6.772;2023-11-21T04:57:55;13.97;;;8.87;;
5507;SDS011;2776;51.046;6.772;2023-11-21T05:00:22;15.67;;;8.80;;
5507;SDS011;2776;51.046;6.772;2023-11-21T05:02:49;14.70;;;8.13;;
5507;SDS011;2776;51.046;6.772;2023-11-21T05:05:15;20.30;;;9.13;;
5507;SDS011;2776;51.046;6.772;2023-11-21T05:07:42;19.40;;;8.30;;
5507;SDS011;2776;51.046;6.772;2023-11-21T05:10:10;12.00;;;7.47;;
5507;SDS011;2776;51.046;6.772;2023-11-21T05:12:39;15.00;;;8.27;;
5507;SDS011;2776;51.046;6.772;2023-11-21T05:15:08;14.73;;;7.90;;
5507;SDS011;2776;51.046;6.772;2023-11-21T05:17:37;16.30;;;8.87;;
5507;SDS011;2776;51.046;6.772;2023-11-21T05:20:07;16.77;;;8.57;;
5507;SDS011;2776;51.046;6.772;2023-11-21T05:22:34;17.27;;;8.60;;
5507;SDS011;2776;51.046;6.772;2023-11-21T05:25:02;14.07;;;8.27;;
5507;SDS011;2776;51.046;6.772;2023-11-21T05:27:30;16.47;;;8.43;;
5507;SDS011;2776;51.046;6.772;2023-11-21T05:29:56;15.50;;;7.93;;
5507;SDS011;2776;51.046;6.772;2023-11-21T05:32:25;20.30;;;8.40;;
5507;SDS011;2776;51.046;6.772;2023-11-21T05:34:52;17.40;;;8.40;;
5507;SDS011;2776;51.046;6.772;2023-11-21T05:37:18;14.73;;;8.83;;
5507;SDS011;2776;51.046;6.772;2023-11-21T05:39:45;13.43;;;8.17;;
5507;SDS011;2776;51.046;6.772;2023-11-21T05:42:12;11.83;;;7.57;;
5507;SDS011;2776;51.046;6.772;2023-11-21T05:44:40;15.33;;;8.33;;
5507;SDS011;2776;51.046;6.772;2023-11-21T05:47:08;13.30;;;8.03;;
5507;SDS011;2776;51.046;6.772;2023-11-21T05:49:36;17.10;;;8.00;;
5507;SDS011;2776;51.046;6.772;2023-11-21T05:52:03;13.63;;;7.60;;
5507;SDS011;2776;51.046;6.772;2023-11-21T05:54:30;13.27;;;8.23;;
5507;SDS011;2776;51.046;6.772;2023-11-21T05:56:57;14.67;;;8.70;;
5507;SDS011;2776;51.046;6.772;2023-11-21T05:59:24;14.67;;;8.63;;
5507;SDS011;2776;51.046;6.772;2023-11-21T06:01:51;13.63;;;8.43;;
5507;SDS011;2776;51.046;6.772;2023-11-21T06:04:18;11.83;;;7.57;;
5507;SDS011;2776;51.046;6.772;2023-11-21T06:06:50;14.80;;;7.73;;
5507;SDS011;2776;51.046;6.772;2023-11-21T06:09:17;12.60;;;8.27;;
5507;SDS011;2776;51.046;6.772;2023-11-21T06:11:44;11.17;;;7.13;;
5507;SDS011;2776;51.046;6.772;2023-11-21T06:14:11;14.60;;;7.87;;
5507;SDS011;2776;51.046;6.772;2023-11-21T06:16:38;14.80;;;8.47;;
5507;SDS011;2776;51.046;6.772;2023-11-21T06:19:05;14.30;;;8.17;;
5507;SDS011;2776;51.046;6.772;2023-11-21T06:21:32;15.23;;;8.30;;
5507;SDS011;2776;51.046;6.772;2023-11-21T06:24:00;16.20;;;8.20;;
5507;SDS011;2776;51.046;6.772;2023-11-21T06:26:27;13.57;;;8.23;;
5507;SDS011;2776;51.046;6.772;2023-11-21T06:28:53;14.60;;;8.10;;
5507;SDS011;2776;51.046;6.772;2023-11-21T06:31:22;15.20;;;8.33;;
5507;SDS011;2776;51.046;6.772;2023-11-21T06:33:48;17.17;;;8.20;;
5507;SDS011;2776;51.046;6.772;2023-11-21T06:36:17;14.20;;;7.80;;
5507;SDS011;2776;51.046;6.772;2023-11-21T06:38:43;17.73;;;9.63;;
5507;SDS011;2776;51.046;6.772;2023-11-21T06:41:12;16.03;;;8.33;;
5507;SDS011;2776;51.046;6.772;2023-11-21T06:43:40;13.10;;;7.83;;
5507;SDS011;2776;51.046;6.772;2023-11-21T06:46:10;16.50;;;9.57;;
5507;SDS011;2776;51.046;6.772;2023-11-21T06:48:39;16.17;;;9.10;;
5507;SDS011;2776;51.046;6.772;2023-11-21T06:51:06;14.37;;;8.17;;
5507;SDS011;2776;51.046;6.772;2023-11-21T06:53:33;14.97;;;9.50;;
5507;SDS011;2776;51.046;6.772;2023-11-21T06:56:00;15.90;;;10.00;;
5507;SDS011;2776;51.046;6.772;2023-11-21T06:58:28;18.77;;;9.90;;
5507;SDS011;2776;51.046;6.772;2023-11-21T07:00:54;20.70;;;10.33;;
5507;SDS011;2776;51.046;6.772;2023-11-21T07:03:23;21.30;;;11.63;;
5507;SDS011;2776;51.046;6.772;2023-11-21T07:05:51;31.23;;;16.50;;
5507;SDS011;2776;51.046;6.772;2023-11-21T07:08:17;29.70;;;14.80;;
5507;SDS011;2776;51.046;6.772;2023-11-21T07:10:44;25.00;;;12.77;;
5507;SDS011;2776;51.046;6.772;2023-11-21T07:13:12;19.83;;;11.30;;
5507;SDS011;2776;51.046;6.772;2023-11-21T07:15:40;19.30;;;10.87;;
5507;SDS011;2776;51.046;6.772;2023-11-21T07:18:08;23.30;;;10.80;;
5507;SDS011;2776;51.046;6.772;2023-11-21T07:20:36;20.23;;;10.47;;
5507;SDS011;2776;51.046;6.772;2023-11-21T07:23:03;22.73;;;11.07;;
5507;SDS011;2776;51.046;6.772;2023-11-21T07:25:30;19.37;;;10.37;;
5507;SDS011;2776;51.046;6.772;2023-11-21T07:27:58;20.23;;;10.63;;
5507;SDS011;2776;51.046;6.772;2023-11-21T07:30:25;18.33;;;10.37;;
5507;SDS011;2776;51.046;6.772;2023-11-21T07:32:53;19.57;;;10.33;;
5507;SDS011;2776;51.046;6.772;2023-11-21T07:35:20;20.13;;;9.73;;
5507;SDS011;2776;51.046;6.772;2023-11-21T07:37:47;21.73;;;10.87;;
5507;SDS011;2776;51.046;6.772;2023-11-21T07:40:14;17.77;;;9.87;;
5507;SDS011;2776;51.046;6.772;2023-11-21T07:42:41;18.37;;;9.37;;
5507;SDS011;2776;51.046;6.772;2023-11-21T07:45:08;19.97;;;9.73;;
5507;SDS011;2776;51.046;6.772;2023-11-21T07:47:36;16.27;;;9.90;;
5507;SDS011;2776;51.046;6.772;2023-11-21T07:50:06;16.93;;;10.13;;
5507;SDS011;2776;51.046;6.772;2023-11-21T07:52:33;21.50;;;10.00;;
5507;SDS011;2776;51.046;6.772;2023-11-21T07:55:00;15.80;;;8.73;;
5507;SDS011;2776;51.046;6.772;2023-11-21T07:57:27;18.77;;;10.63;;
5507;SDS011;2776;51.046;6.772;2023-11-21T07:59:54;18.10;;;9.90;;
5507;SDS011;2776;51.046;6.772;2023-11-21T08:02:21;20.40;;;10.80;;
5507;SDS011;2776;51.046;6.772;2023-11-21T08:04:48;17.67;;;9.23;;
5507;SDS011;2776;51.046;6.772;2023-11-21T08:07:17;20.80;;;11.13;;
5507;SDS011;2776;51.046;6.772;2023-11-21T08:09:43;19.50;;;10.47;;
5507;SDS011;2776;51.046;6.772;2023-11-21T08:12:11;25.27;;;11.23;;
5507;SDS011;2776;51.046;6.772;2023-11-21T08:14:39;15.97;;;8.80;;
5507;SDS011;2776;51.046;6.772;2023-11-21T08:17:06;22.37;;;10.50;;
5507;SDS011;2776;51.046;6.772;2023-11-21T08:19:35;22.83;;;11.47;;
5507;SDS011;2776;51.046;6.772;2023-11-21T08:22:02;22.30;;;11.30;;
5507;SDS011;2776;51.046;6.772;2023-11-21T08:24:30;20.50;;;10.20;;
5507;SDS011;2776;51.046;6.772;2023-11-21T08:26:57;22.53;;;9.97;;
5507;SDS011;2776;51.046;6.772;2023-11-21T08:29:23;19.70;;;10.27;;
5507;SDS011;2776;51.046;6.772;2023-11-21T08:31:50;20.97;;;10.57;;
5507;SDS011;2776;51.046;6.772;2023-11-21T08:34:17;24.13;;;10.00;;
5507;SDS011;2776;51.046;6.772;2023-11-21T08:36:44;20.70;;;10.57;;
5507;SDS011;2776;51.046;6.772;2023-11-21T08:39:10;25.90;;;11.37;;
5507;SDS011;2776;51.046;6.772;2023-11-21T08:41:39;26.33;;;12.13;;
5507;SDS011;2776;51.046;6.772;2023-11-21T08:44:06;27.33;;;12.27;;
5507;SDS011;2776;51.046;6.772;2023-11-21T08:46:33;25.40;;;12.13;;
5507;SDS011;2776;51.046;6.772;2023-11-21T08:49:01;29.03;;;13.77;;
5507;SDS011;2776;51.046;6.772;2023-11-21T08:51:28;28.57;;;13.10;;
5507;SDS011;2776;51.046;6.772;2023-11-21T08:53:56;26.73;;;13.27;;
5507;SDS011;2776;51.046;6.772;2023-11-21T08:56:25;27.87;;;12.97;;
5507;SDS011;2776;51.046;6.772;2023-11-21T08:58:54;30.27;;;13.23;;
5507;SDS011;2776;51.046;6.772;2023-11-21T09:01:22;27.90;;;11.97;;
5507;SDS011;2776;51.046;6.772;2023-11-21T09:03:49;27.67;;;13.30;;
5507;SDS011;2776;51.046;6.772;2023-11-21T09:06:16;26.70;;;12.47;;
5507;SDS011;2776;51.046;6.772;2023-11-21T09:08:43;30.40;;;12.67;;
5507;SDS011;2776;51.046;6.772;2023-11-21T09:11:10;25.77;;;12.40;;
5507;SDS011;2776;51.046;6.772;2023-11-21T09:13:36;27.07;;;12.67;;
5507;SDS011;2776;51.046;6.772;2023-11-21T09:16:05;32.73;;;13.27;;
5507;SDS011;2776;51.046;6.772;2023-11-21T09:18:32;32.63;;;13.47;;
5507;SDS011;2776;51.046;6.772;2023-11-21T09:20:59;31.17;;;13.13;;
5507;SDS011;2776;51.046;6.772;2023-11-21T09:23:25;27.47;;;13.03;;
5507;SDS011;2776;51.046;6.772;2023-11-21T09:25:52;30.37;;;12.57;;
5507;SDS011;2776;51.046;6.772;2023-11-21T09:28:21;29.30;;;13.27;;
5507;SDS011;2776;51.046;6.772;2023-11-21T09:30:48;32.17;;;12.93;;
5507;SDS011;2776;51.046;6.772;2023-11-21T09:33:17;26.63;;;12.90;;
5507;SDS011;2776;51.046;6.772;2023-11-21T09:35:44;26.40;;;12.93;;
5507;SDS011;2776;51.046;6.772;2023-11-21T09:38:10;27.70;;;13.13;;
5507;SDS011;2776;51.046;6.772;2023-11-21T09:40:37;30.07;;;13.83;;
5507;SDS011;2776;51.046;6.772;2023-11-21T09:43:05;23.60;;;11.10;;
5507;SDS011;2776;51.046;6.772;2023-11-21T09:45:39;25.67;;;10.80;;
5507;SDS011;2776;51.046;6.772;2023-11-21T09:48:06;30.20;;;12.23;;
5507;SDS011;2776;51.046;6.772;2023-11-21T09:50:37;27.77;;;11.10;;
5507;SDS011;2776;51.046;6.772;2023-11-21T09:53:08;26.73;;;11.40;;
5507;SDS011;2776;51.046;6.772;2023-11-21T09:55:40;28.83;;;11.53;;
5507;SDS011;2776;51.046;6.772;2023-11-21T09:58:09;23.93;;;11.00;;
5507;SDS011;2776;51.046;6.772;2023-11-21T10:00:38;27.53;;;11.10;;
5507;SDS011;2776;51.046;6.772;2023-11-21T10:03:06;25.33;;;11.43;;
5507;SDS011;2776;51.046;6.772;2023-11-21T10:05:33;23.47;;;11.47;;
5507;SDS011;2776;51.046;6.772;2023-11-21T10:08:01;25.20;;;11.57;;
5507;SDS011;2776;51.046;6.772;2023-11-21T10:10:31;26.83;;;11.23;;
5507;SDS011;2776;51.046;6.772;2023-11-21T10:13:01;29.00;;;10.77;;
5507;SDS011;2776;51.046;6.772;2023-11-21T10:15:31;23.27;;;10.17;;
5507;SDS011;2776;51.046;6.772;2023-11-21T10:17:59;30.60;;;10.63;;
5507;SDS011;2776;51.046;6.772;2023-11-21T10:20:29;27.87;;;11.57;;
5507;SDS011;2776;51.046;6.772;2023-11-21T10:22:58;23.00;;;10.63;;
5507;SDS011;2776;51.046;6.772;2023-11-21T10:25:34;19.03;;;9.10;;
5507;SDS011;2776;51.046;6.772;2023-11-21T10:28:02;19.73;;;9.23;;
5507;SDS011;2776;51.046;6.772;2023-11-21T10:30:32;20.17;;;9.77;;
5507;SDS011;2776;51.046;6.772;2023-11-21T10:33:02;24.27;;;10.47;;
5507;SDS011;2776;51.046;6.772;2023-11-21T10:35:39;22.47;;;10.40;;
5507;SDS011;2776;51.046;6.772;2023-11-21T10:38:11;23.43;;;9.97;;
5507;SDS011;2776;51.046;6.772;2023-11-21T10:40:40;24.67;;;11.30;;
5507;SDS011;2776;51.046;6.772;2023-11-21T10:43:07;18.53;;;8.87;;
5507;SDS011;2776;51.046;6.772;2023-11-21T10:45:35;18.50;;;9.90;;
5507;SDS011;2776;51.046;6.772;2023-11-21T10:48:04;18.60;;;9.73;;
5507;SDS011;2776;51.046;6.772;2023-11-21T10:50:33;19.00;;;9.63;;
5507;SDS011;2776;51.046;6.772;2023-11-21T10:53:01;19.77;;;8.93;;
5507;SDS011;2776;51.046;6.772;2023-11-21T10:55:29;21.20;;;8.90;;
5507;SDS011;2776;51.046;6.772;2023-11-21T10:57:58;17.43;;;8.80;;
5507;SDS011;2776;51.046;6.772;2023-11-21T11:00:27;14.63;;;7.60;;
5507;SDS011;2776;51.046;6.772;2023-11-21T11:02:54;17.57;;;8.30;;
5507;SDS011;2776;51.046;6.772;2023-11-21T11:05:21;20.90;;;8.77;;
5507;SDS011;2776;51.046;6.772;2023-11-21T11:07:51;17.97;;;8.57;;
5507;SDS011;2776;51.046;6.772;2023-11-21T11:10:25;19.23;;;8.67;;
5507;SDS011;2776;51.046;6.772;2023-11-21T11:12:52;16.67;;;8.23;;
5507;SDS011;2776;51.046;6.772;2023-11-21T11:15:21;18.57;;;8.57;;
5507;SDS011;2776;51.046;6.772;2023-11-21T11:17:49;19.00;;;8.17;;
5507;SDS011;2776;51.046;6.772;2023-11-21T11:20:16;18.57;;;7.50;;
5507;SDS011;2776;51.046;6.772;2023-11-21T11:22:48;19.67;;;8.53;;
5507;SDS011;2776;51.046;6.772;2023-11-21T11:25:31;18.43;;;8.67;;
5507;SDS011;2776;51.046;6.772;2023-11-21T11:28:12;24.37;;;11.70;;
5507;SDS011;2776;51.046;6.772;2023-11-21T11:30:47;20.90;;;8.77;;
5507;SDS011;2776;51.046;6.772;2023-11-21T11:33:26;19.30;;;7.93;;
5507;SDS011;2776;51.046;6.772;2023-11-21T11:36:07;12.10;;;7.30;;
5507;SDS011;2776;51.046;6.772;2023-11-21T11:38:48;15.97;;;7.43;;
5507;SDS011;2776;51.046;6.772;2023-11-21T11:41:23;15.83;;;8.20;;
5507;SDS011;2776;51.046;6.772;2023-11-21T11:43:51;18.87;;;8.30;;
5507;SDS011;2776;51.046;6.772;2023-11-21T11:46:19;21.53;;;9.00;;
5507;SDS011;2776;51.046;6.772;2023-11-21T11:48:47;17.97;;;8.60;;
5507;SDS011;2776;51.046;6.772;2023-11-21T11:51:28;20.10;;;9.10;;
5507;SDS011;2776;51.046;6.772;2023-11-21T11:53:56;21.07;;;8.83;;
5507;SDS011;2776;51.046;6.772;2023-11-21T11:56:24;20.07;;;9.07;;
5507;SDS011;2776;51.046;6.772;2023-11-21T11:58:52;21.10;;;9.53;;
5507;SDS011;2776;51.046;6.772;2023-11-21T12:01:21;21.20;;;9.13;;
5507;SDS011;2776;51.046;6.772;2023-11-21T12:06:56;16.77;;;8.00;;
5507;SDS011;2776;51.046;6.772;2023-11-21T12:09:27;20.43;;;10.00;;
5507;SDS011;2776;51.046;6.772;2023-11-21T12:11:56;19.33;;;9.60;;
5507;SDS011;2776;51.046;6.772;2023-11-21T12:14:23;20.70;;;9.00;;
5507;SDS011;2776;51.046;6.772;2023-11-21T12:16:51;16.90;;;9.03;;
5507;SDS011;2776;51.046;6.772;2023-11-21T12:19:19;18.90;;;8.53;;
5507;SDS011;2776;51.046;6.772;2023-11-21T12:21:47;15.77;;;9.10;;
5507;SDS011;2776;51.046;6.772;2023-11-21T12:24:15;24.30;;;10.37;;
5507;SDS011;2776;51.046;6.772;2023-11-21T12:26:42;18.33;;;9.03;;
5507;SDS011;2776;51.046;6.772;2023-11-21T12:29:10;19.60;;;9.93;;
5507;SDS011;2776;51.046;6.772;2023-11-21T12:31:37;21.57;;;10.20;;
5507;SDS011;2776;51.046;6.772;2023-11-21T12:34:05;19.40;;;9.60;;
5507;SDS011;2776;51.046;6.772;2023-11-21T12:36:34;18.17;;;8.67;;
5507;SDS011;2776;51.046;6.772;2023-11-21T12:39:01;18.20;;;9.07;;
5507;SDS011;2776;51.046;6.772;2023-11-21T12:41:28;20.00;;;9.50;;
5507;SDS011;2776;51.046;6.772;2023-11-21T12:43:56;17.77;;;8.50;;
5507;SDS011;2776;51.046;6.772;2023-11-21T12:46:23;17.20;;;8.87;;
5507;SDS011;2776;51.046;6.772;2023-11-21T12:48:54;16.60;;;8.70;;
5507;SDS011;2776;51.046;6.772;2023-11-21T12:51:22;15.70;;;8.17;;
5507;SDS011;2776;51.046;6.772;2023-11-21T12:53:49;12.60;;;7.80;;
5507;SDS011;2776;51.046;6.772;2023-11-21T12:56:17;17.20;;;8.03;;
5507;SDS011;2776;51.046;6.772;2023-11-21T12:58:48;16.33;;;9.10;;
5507;SDS011;2776;51.046;6.772;2023-11-21T13:01:16;19.77;;;9.93;;
5507;SDS011;2776;51.046;6.772;2023-11-21T13:03:45;22.73;;;10.70;;
5507;SDS011;2776;51.046;6.772;2023-11-21T13:06:15;21.63;;;10.77;;
5507;SDS011;2776;51.046;6.772;2023-11-21T13:08:45;22.60;;;10.30;;
5507;SDS011;2776;51.046;6.772;2023-11-21T13:11:12;19.93;;;9.87;;
5507;SDS011;2776;51.046;6.772;2023-11-21T13:13:40;22.47;;;10.37;;
5507;SDS011;2776;51.046;6.772;2023-11-21T13:16:08;20.23;;;9.90;;
5507;SDS011;2776;51.046;6.772;2023-11-21T13:18:35;20.13;;;10.10;;
5507;SDS011;2776;51.046;6.772;2023-11-21T13:21:03;22.07;;;11.77;;
5507;SDS011;2776;51.046;6.772;2023-11-21T13:23:35;22.57;;;10.07;;
5507;SDS011;2776;51.046;6.772;2023-11-21T13:26:04;19.47;;;9.40;;
5507;SDS011;2776;51.046;6.772;2023-11-21T13:28:31;20.20;;;10.00;;
5507;SDS011;2776;51.046;6.772;2023-11-21T13:30:59;14.73;;;8.63;;
5507;SDS011;2776;51.046;6.772;2023-11-21T13:33:29;19.57;;;8.97;;
5507;SDS011;2776;51.046;6.772;2023-11-21T13:35:58;18.43;;;9.17;;
5507;SDS011;2776;51.046;6.772;2023-11-21T13:38:26;19.30;;;8.20;;
5507;SDS011;2776;51.046;6.772;2023-11-21T13:40:58;19.63;;;9.53;;
5507;SDS011;2776;51.046;6.772;2023-11-21T13:43:26;16.97;;;8.43;;
5507;SDS011;2776;51.046;6.772;2023-11-21T13:45:54;14.27;;;8.10;;
5507;SDS011;2776;51.046;6.772;2023-11-21T13:48:25;21.23;;;9.20;;
5507;SDS011;2776;51.046;6.772;2023-11-21T13:50:57;21.10;;;8.87;;
5507;SDS011;2776;51.046;6.772;2023-11-21T13:53:31;17.90;;;7.30;;
5507;SDS011;2776;51.046;6.772;2023-11-21T13:55:58;16.73;;;7.67;;
5507;SDS011;2776;51.046;6.772;2023-11-21T13:58:26;14.33;;;7.77;;
5507;SDS011;2776;51.046;6.772;2023-11-21T14:01:06;17.47;;;8.37;;
5507;SDS011;2776;51.046;6.772;2023-11-21T14:03:41;18.67;;;9.23;;
5507;SDS011;2776;51.046;6.772;2023-11-21T14:06:16;16.77;;;8.07;;
5507;SDS011;2776;51.046;6.772;2023-11-21T14:08:49;24.87;;;9.93;;
5507;SDS011;2776;51.046;6.772;2023-11-21T14:11:16;18.80;;;8.80;;
5507;SDS011;2776;51.046;6.772;2023-11-21T14:13:45;17.33;;;10.03;;
5507;SDS011;2776;51.046;6.772;2023-11-21T14:16:13;21.90;;;9.67;;
5507;SDS011;2776;51.046;6.772;2023-11-21T14:18:41;17.63;;;9.60;;
5507;SDS011;2776;51.046;6.772;2023-11-21T14:21:17;20.33;;;9.23;;
5507;SDS011;2776;51.046;6.772;2023-11-21T14:23:44;21.90;;;10.10;;
5507;SDS011;2776;51.046;6.772;2023-11-21T14:26:11;22.23;;;10.30;;
5507;SDS011;2776;51.046;6.772;2023-11-21T14:28:39;19.37;;;9.37;;
5507;SDS011;2776;51.046;6.772;2023-11-21T14:31:08;19.90;;;9.53;;
5507;SDS011;2776;51.046;6.772;2023-11-21T14:33:38;18.03;;;9.47;;
5507;SDS011;2776;51.046;6.772;2023-11-21T14:36:05;22.60;;;10.23;;
5507;SDS011;2776;51.046;6.772;2023-11-21T14:38:35;17.40;;;9.23;;
5507;SDS011;2776;51.046;6.772;2023-11-21T14:41:02;21.07;;;9.77;;
5507;SDS011;2776;51.046;6.772;2023-11-21T14:43:29;21.80;;;9.50;;
5507;SDS011;2776;51.046;6.772;2023-11-21T14:45:59;21.47;;;9.47;;
5507;SDS011;2776;51.046;6.772;2023-11-21T14:48:28;22.33;;;9.73;;
5507;SDS011;2776;51.046;6.772;2023-11-21T14:51:07;23.67;;;9.53;;
5507;SDS011;2776;51.046;6.772;2023-11-21T14:53:52;19.83;;;9.47;;
5507;SDS011;2776;51.046;6.772;2023-11-21T14:56:18;24.90;;;11.20;;
5507;SDS011;2776;51.046;6.772;2023-11-21T14:58:51;25.40;;;9.90;;
5507;SDS011;2776;51.046;6.772;2023-11-21T15:01:19;21.97;;;11.50;;
5507;SDS011;2776;51.046;6.772;2023-11-21T15:03:57;26.27;;;10.17;;
5507;SDS011;2776;51.046;6.772;2023-11-21T15:06:23;25.33;;;10.87;;
5507;SDS011;2776;51.046;6.772;2023-11-21T15:08:55;25.13;;;11.73;;